sensor_id;sensor_type;location;lat;lon;timestamp;pressure;altitude;pressure_sealevel;temperature;humidity
27712;BME280;2377;51.734;8.950;2023-04-27T00:01:45;98128.91;;;3.67;71.23
27712;BME280;2377;51.734;8.950;2023-04-27T00:04:13;98126.03;;;3.62;71.10
27712;BME280;2377;51.734;8.950;2023-04-27T00:06:41;98127.81;;;3.53;71.76
27712;BME280;2377;51.734;8.950;2023-04-27T00:09:08;98122.44;;;3.48;71.34
27712;BME280;2377;51.734;8.950;2023-04-27T00:11:34;98122.75;;;3.45;71.63
27712;BME280;2377;51.734;8.950;2023-04-27T00:14:01;98122.09;;;3.43;71.24
27712;BME280;2377;51.734;8.950;2023-04-27T00:16:28;98127.16;;;3.43;71.70
27712;BME280;2377;51.734;8.950;2023-04-27T00:18:55;98120.69;;;3.41;71.63
27712;BME280;2377;51.734;8.950;2023-04-27T00:21:23;98116.91;;;3.36;72.31
27712;BME280;2377;51.734;8.950;2023-04-27T00:23:52;98119.28;;;3.30;72.55
27712;BME280;2377;51.734;8.950;2023-04-27T00:26:20;98123.84;;;3.26;72.36
27712;BME280;2377;51.734;8.950;2023-04-27T00:28:47;98122.28;;;3.25;71.90
27712;BME280;2377;51.734;8.950;2023-04-27T00:31:13;98127.03;;;3.20;72.07
27712;BME280;2377;51.734;8.950;2023-04-27T00:33:40;98124.78;;;3.17;72.41
27712;BME280;2377;51.734;8.950;2023-04-27T00:36:08;98122.25;;;3.17;71.95
27712;BME280;2377;51.734;8.950;2023-04-27T00:38:36;98122.25;;;3.17;72.76
27712;BME280;2377;51.734;8.950;2023-04-27T00:41:05;98123.06;;;3.17;72.41
27712;BME280;2377;51.734;8.950;2023-04-27T00:43:40;98124.00;;;3.16;72.62
27712;BME280;2377;51.734;8.950;2023-04-27T00:46:08;98118.31;;;3.14;72.40
27712;BME280;2377;51.734;8.950;2023-04-27T00:48:35;98117.53;;;3.14;72.83
27712;BME280;2377;51.734;8.950;2023-04-27T00:51:03;98122.91;;;3.11;72.58
27712;BME280;2377;51.734;8.950;2023-04-27T00:53:31;98119.75;;;3.09;72.46
27712;BME280;2377;51.734;8.950;2023-04-27T00:55:59;98117.69;;;3.04;72.42
27712;BME280;2377;51.734;8.950;2023-04-27T00:58:27;98113.56;;;3.03;72.50
27712;BME280;2377;51.734;8.950;2023-04-27T01:00:54;98114.66;;;3.01;72.37
27712;BME280;2377;51.734;8.950;2023-04-27T01:03:21;98121.59;;;2.99;72.23
27712;BME280;2377;51.734;8.950;2023-04-27T01:05:48;98126.06;;;2.96;72.39
27712;BME280;2377;51.734;8.950;2023-04-27T01:08:15;98124.00;;;2.92;72.15
27712;BME280;2377;51.734;8.950;2023-04-27T01:10:42;98132.16;;;2.86;71.99
27712;BME280;2377;51.734;8.950;2023-04-27T01:13:10;98126.31;;;2.77;71.77
27712;BME280;2377;51.734;8.950;2023-04-27T01:15:37;98134.19;;;2.74;71.91
27712;BME280;2377;51.734;8.950;2023-04-27T01:18:04;98129.59;;;2.69;72.23
27712;BME280;2377;51.734;8.950;2023-04-27T01:20:31;98126.75;;;2.64;72.61
27712;BME280;2377;51.734;8.950;2023-04-27T01:22:58;98139.84;;;2.60;72.83
27712;BME280;2377;51.734;8.950;2023-04-27T01:25:27;98135.88;;;2.57;73.15
27712;BME280;2377;51.734;8.950;2023-04-27T01:27:53;98136.19;;;2.54;73.28
27712;BME280;2377;51.734;8.950;2023-04-27T01:30:20;98137.75;;;2.55;73.56
27712;BME280;2377;51.734;8.950;2023-04-27T01:32:48;98136.19;;;2.54;73.84
27712;BME280;2377;51.734;8.950;2023-04-27T01:35:15;98138.56;;;2.56;74.68
27712;BME280;2377;51.734;8.950;2023-04-27T01:37:42;98144.84;;;2.51;74.53
27712;BME280;2377;51.734;8.950;2023-04-27T01:40:10;98143.41;;;2.49;74.29
27712;BME280;2377;51.734;8.950;2023-04-27T01:42:39;98150.34;;;2.47;74.17
27712;BME280;2377;51.734;8.950;2023-04-27T01:45:07;98155.88;;;2.42;73.95
27712;BME280;2377;51.734;8.950;2023-04-27T01:47:35;98155.22;;;2.40;73.74
27712;BME280;2377;51.734;8.950;2023-04-27T01:50:02;98156.94;;;2.40;74.04
27712;BME280;2377;51.734;8.950;2023-04-27T01:52:29;98161.19;;;2.39;73.65
27712;BME280;2377;51.734;8.950;2023-04-27T01:54:56;98156.94;;;2.40;73.37
27712;BME280;2377;51.734;8.950;2023-04-27T01:57:23;98170.34;;;2.40;74.14
27712;BME280;2377;51.734;8.950;2023-04-27T01:59:51;98170.19;;;2.42;73.65
27712;BME280;2377;51.734;8.950;2023-04-27T02:02:18;98176.81;;;2.43;73.65
27712;BME280;2377;51.734;8.950;2023-04-27T02:04:45;98183.44;;;2.44;73.72
27712;BME280;2377;51.734;8.950;2023-04-27T02:07:12;98179.19;;;2.44;74.13
27712;BME280;2377;51.734;8.950;2023-04-27T02:09:39;98179.81;;;2.46;74.07
27712;BME280;2377;51.734;8.950;2023-04-27T02:12:06;98175.56;;;2.47;74.17
27712;BME280;2377;51.734;8.950;2023-04-27T02:14:33;98189.78;;;2.48;74.14
27712;BME280;2377;51.734;8.950;2023-04-27T02:17:01;98185.38;;;2.50;74.82
27712;BME280;2377;51.734;8.950;2023-04-27T02:19:28;98180.00;;;2.53;75.23
27712;BME280;2377;51.734;8.950;2023-04-27T02:21:55;98190.59;;;2.57;75.11
27712;BME280;2377;51.734;8.950;2023-04-27T02:24:22;98190.28;;;2.60;74.76
27712;BME280;2377;51.734;8.950;2023-04-27T02:26:49;98188.25;;;2.63;74.61
27712;BME280;2377;51.734;8.950;2023-04-27T02:29:16;98187.31;;;2.64;75.13
27712;BME280;2377;51.734;8.950;2023-04-27T02:31:43;98185.44;;;2.66;75.50
27712;BME280;2377;51.734;8.950;2023-04-27T02:34:11;98188.75;;;2.67;74.25
27712;BME280;2377;51.734;8.950;2023-04-27T02:36:38;98185.13;;;2.69;74.74
27712;BME280;2377;51.734;8.950;2023-04-27T02:39:05;98193.34;;;2.71;75.36
27712;BME280;2377;51.734;8.950;2023-04-27T02:41:32;98196.50;;;2.73;76.20
27712;BME280;2377;51.734;8.950;2023-04-27T02:43:59;98191.75;;;2.70;76.30
27712;BME280;2377;51.734;8.950;2023-04-27T02:46:26;98191.75;;;2.70;76.13
27712;BME280;2377;51.734;8.950;2023-04-27T02:48:53;98187.50;;;2.71;75.75
27712;BME280;2377;51.734;8.950;2023-04-27T02:51:22;98185.44;;;2.74;75.97
27712;BME280;2377;51.734;8.950;2023-04-27T02:53:49;98191.13;;;2.77;76.50
27712;BME280;2377;51.734;8.950;2023-04-27T02:56:15;98186.09;;;2.77;76.83
27712;BME280;2377;51.734;8.950;2023-04-27T02:58:42;98181.81;;;2.77;76.78
27712;BME280;2377;51.734;8.950;2023-04-27T03:01:09;98183.44;;;2.78;77.04
27712;BME280;2377;51.734;8.950;2023-04-27T03:03:36;98185.94;;;2.78;77.01
27712;BME280;2377;51.734;8.950;2023-04-27T03:06:04;98185.94;;;2.78;77.28
27712;BME280;2377;51.734;8.950;2023-04-27T03:08:33;98186.88;;;2.77;77.45
27712;BME280;2377;51.734;8.950;2023-04-27T03:11:00;98187.06;;;2.75;77.40
27712;BME280;2377;51.734;8.950;2023-04-27T03:13:26;98187.34;;;2.72;77.38
27712;BME280;2377;51.734;8.950;2023-04-27T03:15:53;98180.84;;;2.70;77.49
27712;BME280;2377;51.734;8.950;2023-04-27T03:18:20;98181.97;;;2.67;77.03
27712;BME280;2377;51.734;8.950;2023-04-27T03:20:47;98182.91;;;2.66;77.17
27712;BME280;2377;51.734;8.950;2023-04-27T03:23:14;98184.94;;;2.63;77.16
27712;BME280;2377;51.734;8.950;2023-04-27T03:25:42;98192.81;;;2.60;76.27
27712;BME280;2377;51.734;8.950;2023-04-27T03:28:09;98183.03;;;2.57;76.28
27712;BME280;2377;51.734;8.950;2023-04-27T03:30:38;98185.84;;;2.53;77.12
27712;BME280;2377;51.734;8.950;2023-04-27T03:33:06;98170.69;;;2.45;76.64
27712;BME280;2377;51.734;8.950;2023-04-27T03:35:33;98171.13;;;2.41;76.89
27712;BME280;2377;51.734;8.950;2023-04-27T03:38:00;98163.72;;;2.39;76.32
27712;BME280;2377;51.734;8.950;2023-04-27T03:40:27;98153.94;;;2.36;76.96
27712;BME280;2377;51.734;8.950;2023-04-27T03:42:55;98164.47;;;2.31;77.86
27712;BME280;2377;51.734;8.950;2023-04-27T03:45:22;98161.63;;;2.26;77.69
27712;BME280;2377;51.734;8.950;2023-04-27T03:47:49;98169.31;;;2.25;77.75
27712;BME280;2377;51.734;8.950;2023-04-27T03:50:16;98165.38;;;2.22;77.66
27712;BME280;2377;51.734;8.950;2023-04-27T03:52:43;98166.59;;;2.18;76.97
27712;BME280;2377;51.734;8.950;2023-04-27T03:55:10;98177.94;;;2.14;77.62
27712;BME280;2377;51.734;8.950;2023-04-27T03:57:38;98180.75;;;2.11;77.09
27712;BME280;2377;51.734;8.950;2023-04-27T04:00:09;98172.25;;;2.12;77.23
27712;BME280;2377;51.734;8.950;2023-04-27T04:02:37;98178.88;;;2.13;77.47
27712;BME280;2377;51.734;8.950;2023-04-27T04:05:04;98177.31;;;2.12;77.49
27712;BME280;2377;51.734;8.950;2023-04-27T04:07:32;98185.13;;;2.09;78.12
27712;BME280;2377;51.734;8.950;2023-04-27T04:09:59;98184.50;;;2.07;77.42
27712;BME280;2377;51.734;8.950;2023-04-27T04:12:26;98178.66;;;2.06;77.16
27712;BME280;2377;51.734;8.950;2023-04-27T04:14:53;98173.78;;;2.05;77.19
27712;BME280;2377;51.734;8.950;2023-04-27T04:17:21;98178.03;;;2.04;76.98
27712;BME280;2377;51.734;8.950;2023-04-27T04:19:48;98177.25;;;2.04;78.24
27712;BME280;2377;51.734;8.950;2023-04-27T04:22:15;98176.59;;;2.02;78.56
27712;BME280;2377;51.734;8.950;2023-04-27T04:24:42;98180.06;;;2.01;79.37
27712;BME280;2377;51.734;8.950;2023-04-27T04:27:09;98173.72;;;1.97;78.83
27712;BME280;2377;51.734;8.950;2023-04-27T04:29:36;98170.56;;;1.95;78.40
27712;BME280;2377;51.734;8.950;2023-04-27T04:32:03;98180.66;;;1.95;78.02
27712;BME280;2377;51.734;8.950;2023-04-27T04:34:33;98191.69;;;1.94;77.72
27712;BME280;2377;51.734;8.950;2023-04-27T04:37:00;98191.03;;;1.92;78.67
27712;BME280;2377;51.734;8.950;2023-04-27T04:39:29;98193.41;;;1.93;78.83
27712;BME280;2377;51.734;8.950;2023-04-27T04:41:57;98194.19;;;1.94;78.03
27712;BME280;2377;51.734;8.950;2023-04-27T04:44:24;98190.72;;;1.95;78.38
27712;BME280;2377;51.734;8.950;2023-04-27T04:46:51;98193.25;;;1.95;78.08
27712;BME280;2377;51.734;8.950;2023-04-27T04:49:19;98193.91;;;1.97;78.29
27712;BME280;2377;51.734;8.950;2023-04-27T04:51:48;98202.75;;;2.01;78.28
27712;BME280;2377;51.734;8.950;2023-04-27T04:54:14;98204.97;;;2.04;79.18
27712;BME280;2377;51.734;8.950;2023-04-27T04:56:41;98209.09;;;2.05;78.89
27712;BME280;2377;51.734;8.950;2023-04-27T04:59:08;98218.72;;;2.09;79.13
27712;BME280;2377;51.734;8.950;2023-04-27T05:01:35;98227.41;;;2.15;79.81
27712;BME280;2377;51.734;8.950;2023-04-27T05:04:02;98226.97;;;2.20;79.17
27712;BME280;2377;51.734;8.950;2023-04-27T05:06:29;98229.06;;;2.24;79.12
27712;BME280;2377;51.734;8.950;2023-04-27T05:08:57;98225.31;;;2.28;79.38
27712;BME280;2377;51.734;8.950;2023-04-27T05:11:24;98226.75;;;2.31;79.42
27712;BME280;2377;51.734;8.950;2023-04-27T05:13:51;98228.81;;;2.36;79.86
27712;BME280;2377;51.734;8.950;2023-04-27T05:16:18;98225.03;;;2.40;79.81
27712;BME280;2377;51.734;8.950;2023-04-27T05:18:45;98231.53;;;2.42;80.05
27712;BME280;2377;51.734;8.950;2023-04-27T05:21:16;98231.06;;;2.47;79.79
27712;BME280;2377;51.734;8.950;2023-04-27T05:23:45;98235.38;;;2.54;80.74
27712;BME280;2377;51.734;8.950;2023-04-27T05:26:16;98236.34;;;2.62;80.77
27712;BME280;2377;51.734;8.950;2023-04-27T05:28:44;98235.13;;;2.66;80.78
27712;BME280;2377;51.734;8.950;2023-04-27T05:31:11;98233.41;;;2.74;81.60
27712;BME280;2377;51.734;8.950;2023-04-27T05:33:38;98237.22;;;2.79;80.87
27712;BME280;2377;51.734;8.950;2023-04-27T05:36:06;98241.94;;;2.82;80.68
27712;BME280;2377;51.734;8.950;2023-04-27T05:38:33;98241.81;;;2.83;81.58
27712;BME280;2377;51.734;8.950;2023-04-27T05:41:04;98240.41;;;2.89;80.58
27712;BME280;2377;51.734;8.950;2023-04-27T05:43:32;98235.84;;;2.92;80.38
27712;BME280;2377;51.734;8.950;2023-04-27T05:46:03;98246.13;;;2.99;81.42
27712;BME280;2377;51.734;8.950;2023-04-27T05:48:30;98252.94;;;3.07;81.52
27712;BME280;2377;51.734;8.950;2023-04-27T05:51:00;98260.38;;;3.16;81.31
27712;BME280;2377;51.734;8.950;2023-04-27T05:53:27;98260.41;;;3.25;80.78
27712;BME280;2377;51.734;8.950;2023-04-27T05:55:55;98263.09;;;3.31;80.55
27712;BME280;2377;51.734;8.950;2023-04-27T05:58:23;98261.25;;;3.42;80.39
27712;BME280;2377;51.734;8.950;2023-04-27T06:00:52;98269.59;;;3.50;80.80
27712;BME280;2377;51.734;8.950;2023-04-27T06:03:20;98268.53;;;3.61;81.67
27712;BME280;2377;51.734;8.950;2023-04-27T06:05:53;98277.56;;;3.72;81.22
27712;BME280;2377;51.734;8.950;2023-04-27T06:08:20;98275.50;;;3.84;80.62
27712;BME280;2377;51.734;8.950;2023-04-27T06:10:47;98267.78;;;3.93;81.10
27712;BME280;2377;51.734;8.950;2023-04-27T06:13:14;98270.13;;;4.03;81.39
27712;BME280;2377;51.734;8.950;2023-04-27T06:15:41;98272.16;;;4.16;81.23
27712;BME280;2377;51.734;8.950;2023-04-27T06:18:09;98268.38;;;4.28;81.36
27712;BME280;2377;51.734;8.950;2023-04-27T06:20:36;98263.59;;;4.41;80.86
27712;BME280;2377;51.734;8.950;2023-04-27T06:23:03;98263.91;;;4.55;80.39
27712;BME280;2377;51.734;8.950;2023-04-27T06:25:30;98264.03;;;4.61;79.62
27712;BME280;2377;51.734;8.950;2023-04-27T06:27:57;98268.91;;;4.71;78.79
27712;BME280;2377;51.734;8.950;2023-04-27T06:30:24;98263.66;;;4.81;78.94
27712;BME280;2377;51.734;8.950;2023-04-27T06:32:51;98262.19;;;4.95;77.91
27712;BME280;2377;51.734;8.950;2023-04-27T06:35:20;98269.09;;;5.09;77.80
27712;BME280;2377;51.734;8.950;2023-04-27T06:37:47;98271.25;;;5.20;76.90
27712;BME280;2377;51.734;8.950;2023-04-27T06:40:14;98274.38;;;5.30;75.96
27712;BME280;2377;51.734;8.950;2023-04-27T06:42:41;98279.06;;;5.42;75.03
27712;BME280;2377;51.734;8.950;2023-04-27T06:45:09;98279.47;;;5.54;73.85
27712;BME280;2377;51.734;8.950;2023-04-27T06:47:36;98281.78;;;5.63;73.11
27712;BME280;2377;51.734;8.950;2023-04-27T06:50:04;98272.50;;;5.79;72.30
27712;BME280;2377;51.734;8.950;2023-04-27T06:52:32;98278.41;;;5.94;70.86
27712;BME280;2377;51.734;8.950;2023-04-27T06:54:59;98278.91;;;6.12;70.80
27712;BME280;2377;51.734;8.950;2023-04-27T06:57:26;98277.19;;;6.28;69.62
27712;BME280;2377;51.734;8.950;2023-04-27T06:59:53;98285.25;;;6.46;69.83
27712;BME280;2377;51.734;8.950;2023-04-27T07:02:20;98283.28;;;6.56;66.09
27712;BME280;2377;51.734;8.950;2023-04-27T07:04:47;98278.09;;;6.65;64.38
27712;BME280;2377;51.734;8.950;2023-04-27T07:07:14;98278.19;;;6.71;64.14
27712;BME280;2377;51.734;8.950;2023-04-27T07:09:42;98280.19;;;6.76;61.61
27712;BME280;2377;51.734;8.950;2023-04-27T07:12:09;98283.34;;;6.78;62.48
27712;BME280;2377;51.734;8.950;2023-04-27T07:14:36;98289.66;;;6.82;60.41
27712;BME280;2377;51.734;8.950;2023-04-27T07:17:02;98291.22;;;6.98;61.63
27712;BME280;2377;51.734;8.950;2023-04-27T07:19:29;98295.44;;;7.06;60.09
27712;BME280;2377;51.734;8.950;2023-04-27T07:21:56;98288.56;;;7.21;62.50
27712;BME280;2377;51.734;8.950;2023-04-27T07:24:23;98287.72;;;7.50;62.81
27712;BME280;2377;51.734;8.950;2023-04-27T07:26:51;98291.84;;;7.73;59.85
27712;BME280;2377;51.734;8.950;2023-04-27T07:29:18;98290.75;;;7.82;58.62
27712;BME280;2377;51.734;8.950;2023-04-27T07:31:45;98288.03;;;7.83;56.89
27712;BME280;2377;51.734;8.950;2023-04-27T07:34:12;98294.81;;;7.98;58.84
27712;BME280;2377;51.734;8.950;2023-04-27T07:36:39;98296.16;;;8.22;56.77
27712;BME280;2377;51.734;8.950;2023-04-27T07:39:06;98291.56;;;8.39;58.84
27712;BME280;2377;51.734;8.950;2023-04-27T07:41:33;98303.09;;;8.56;57.18
27712;BME280;2377;51.734;8.950;2023-04-27T07:44:01;98296.94;;;8.44;54.28
27712;BME280;2377;51.734;8.950;2023-04-27T07:46:28;98298.28;;;8.40;54.02
27712;BME280;2377;51.734;8.950;2023-04-27T07:48:56;98294.84;;;8.54;55.92
27712;BME280;2377;51.734;8.950;2023-04-27T07:51:25;98289.13;;;8.80;55.78
27712;BME280;2377;51.734;8.950;2023-04-27T07:53:53;98292.13;;;8.97;55.28
27712;BME280;2377;51.734;8.950;2023-04-27T07:56:20;98286.91;;;9.19;56.39
27712;BME280;2377;51.734;8.950;2023-04-27T07:58:47;98292.06;;;9.32;53.16
27712;BME280;2377;51.734;8.950;2023-04-27T08:01:15;98284.41;;;9.32;54.01
27712;BME280;2377;51.734;8.950;2023-04-27T08:03:42;98287.59;;;9.47;53.90
27712;BME280;2377;51.734;8.950;2023-04-27T08:06:09;98278.78;;;9.63;53.69
27712;BME280;2377;51.734;8.950;2023-04-27T08:08:36;98285.47;;;9.71;53.33
27712;BME280;2377;51.734;8.950;2023-04-27T08:11:03;98286.25;;;9.78;54.95
27712;BME280;2377;51.734;8.950;2023-04-27T08:13:32;98278.03;;;9.89;53.42
27712;BME280;2377;51.734;8.950;2023-04-27T08:15:59;98277.63;;;10.06;53.25
27712;BME280;2377;51.734;8.950;2023-04-27T08:18:27;98283.94;;;10.23;52.57
27712;BME280;2377;51.734;8.950;2023-04-27T08:20:54;98289.03;;;10.36;51.71
27712;BME280;2377;51.734;8.950;2023-04-27T08:23:21;98283.56;;;10.40;50.20
27712;BME280;2377;51.734;8.950;2023-04-27T08:25:48;98284.69;;;10.50;49.79
27712;BME280;2377;51.734;8.950;2023-04-27T08:28:15;98277.63;;;10.52;49.20
27712;BME280;2377;51.734;8.950;2023-04-27T08:30:42;98273.88;;;10.62;48.97
27712;BME280;2377;51.734;8.950;2023-04-27T08:33:09;98289.78;;;10.70;47.79
27712;BME280;2377;51.734;8.950;2023-04-27T08:35:38;98286.66;;;10.62;45.82
27712;BME280;2377;51.734;8.950;2023-04-27T08:38:05;98285.63;;;10.69;47.64
27712;BME280;2377;51.734;8.950;2023-04-27T08:40:32;98280.50;;;10.83;47.27
27712;BME280;2377;51.734;8.950;2023-04-27T08:42:59;98283.41;;;10.93;46.90
27712;BME280;2377;51.734;8.950;2023-04-27T08:45:27;98284.75;;;10.95;44.37
27712;BME280;2377;51.734;8.950;2023-04-27T08:47:54;98289.09;;;10.95;45.54
27712;BME280;2377;51.734;8.950;2023-04-27T08:50:21;98290.56;;;11.23;47.09
27712;BME280;2377;51.734;8.950;2023-04-27T08:52:50;98286.19;;;11.36;43.53
27712;BME280;2377;51.734;8.950;2023-04-27T08:55:18;98286.97;;;11.30;43.61
27712;BME280;2377;51.734;8.950;2023-04-27T08:58:03;98286.81;;;11.25;41.91
27712;BME280;2377;51.734;8.950;2023-04-27T09:00:38;98280.50;;;11.28;42.66
27712;BME280;2377;51.734;8.950;2023-04-27T09:03:06;98277.34;;;11.32;41.94
27712;BME280;2377;51.734;8.950;2023-04-27T09:05:33;98280.69;;;11.26;44.05
27712;BME280;2377;51.734;8.950;2023-04-27T09:08:04;98277.81;;;11.16;45.48
27712;BME280;2377;51.734;8.950;2023-04-27T09:10:44;98285.78;;;11.33;46.15
27712;BME280;2377;51.734;8.950;2023-04-27T09:13:11;98279.59;;;11.47;44.25
27712;BME280;2377;51.734;8.950;2023-04-27T09:15:43;98282.91;;;11.54;46.37
27712;BME280;2377;51.734;8.950;2023-04-27T09:18:16;98275.97;;;11.61;43.20
27712;BME280;2377;51.734;8.950;2023-04-27T09:20:44;98273.91;;;11.45;43.36
27712;BME280;2377;51.734;8.950;2023-04-27T09:23:25;98283.47;;;11.25;43.17
27712;BME280;2377;51.734;8.950;2023-04-27T09:25:53;98282.19;;;11.02;41.49
27712;BME280;2377;51.734;8.950;2023-04-27T09:28:21;98279.88;;;10.94;43.22
27712;BME280;2377;51.734;8.950;2023-04-27T09:30:53;98275.44;;;11.14;43.08
27712;BME280;2377;51.734;8.950;2023-04-27T09:33:24;98281.25;;;11.35;44.04
27712;BME280;2377;51.734;8.950;2023-04-27T09:35:52;98277.31;;;11.64;44.38
27712;BME280;2377;51.734;8.950;2023-04-27T09:38:22;98277.63;;;11.88;44.58
27712;BME280;2377;51.734;8.950;2023-04-27T09:40:50;98281.94;;;11.80;40.02
27712;BME280;2377;51.734;8.950;2023-04-27T09:43:18;98276.97;;;11.60;41.41
27712;BME280;2377;51.734;8.950;2023-04-27T09:45:45;98264.94;;;11.36;38.93
27712;BME280;2377;51.734;8.950;2023-04-27T09:48:12;98271.28;;;11.27;40.90
27712;BME280;2377;51.734;8.950;2023-04-27T09:50:42;98269.00;;;11.43;41.88
27712;BME280;2377;51.734;8.950;2023-04-27T09:53:12;98273.41;;;11.61;42.64
27712;BME280;2377;51.734;8.950;2023-04-27T09:55:49;98269.94;;;11.81;40.47
27712;BME280;2377;51.734;8.950;2023-04-27T09:59:04;98265.69;;;11.68;40.30
27712;BME280;2377;51.734;8.950;2023-04-27T10:01:42;98272.97;;;11.71;41.78
27712;BME280;2377;51.734;8.950;2023-04-27T10:04:33;98274.25;;;11.87;41.83
27712;BME280;2377;51.734;8.950;2023-04-27T10:07:06;98268.44;;;11.98;42.89
27712;BME280;2377;51.734;8.950;2023-04-27T10:09:39;98268.78;;;12.27;42.47
27712;BME280;2377;51.734;8.950;2023-04-27T10:12:17;98275.69;;;12.52;41.66
27712;BME280;2377;51.734;8.950;2023-04-27T10:14:51;98265.63;;;12.68;41.95
27712;BME280;2377;51.734;8.950;2023-04-27T10:17:24;98266.41;;;12.87;41.38
27712;BME280;2377;51.734;8.950;2023-04-27T10:19:58;98257.16;;;12.86;41.46
27712;BME280;2377;51.734;8.950;2023-04-27T10:22:37;98253.72;;;12.74;39.73
27712;BME280;2377;51.734;8.950;2023-04-27T10:25:25;98258.00;;;12.80;41.41
27712;BME280;2377;51.734;8.950;2023-04-27T10:27:56;98252.06;;;12.98;41.85
27712;BME280;2377;51.734;8.950;2023-04-27T10:30:26;98252.41;;;13.02;40.48
27712;BME280;2377;51.734;8.950;2023-04-27T10:32:58;98244.84;;;13.07;41.21
27712;BME280;2377;51.734;8.950;2023-04-27T10:35:33;98244.72;;;13.02;39.98
27712;BME280;2377;51.734;8.950;2023-04-27T10:38:08;98241.25;;;12.96;34.11
27712;BME280;2377;51.734;8.950;2023-04-27T10:40:36;98244.75;;;12.65;38.54
27712;BME280;2377;51.734;8.950;2023-04-27T10:43:09;98237.59;;;12.85;40.18
27712;BME280;2377;51.734;8.950;2023-04-27T10:45:37;98240.28;;;13.09;40.96
27712;BME280;2377;51.734;8.950;2023-04-27T10:48:05;98245.25;;;13.22;40.07
27712;BME280;2377;51.734;8.950;2023-04-27T10:50:32;98241.25;;;13.26;39.28
27712;BME280;2377;51.734;8.950;2023-04-27T10:53:00;98232.63;;;13.21;39.42
27712;BME280;2377;51.734;8.950;2023-04-27T10:55:28;98229.84;;;13.22;40.45
27712;BME280;2377;51.734;8.950;2023-04-27T10:57:56;98237.09;;;13.25;39.34
27712;BME280;2377;51.734;8.950;2023-04-27T11:00:27;98234.06;;;13.17;38.41
27712;BME280;2377;51.734;8.950;2023-04-27T11:03:00;98231.84;;;13.20;38.49
27712;BME280;2377;51.734;8.950;2023-04-27T11:05:35;98225.25;;;13.13;37.42
27712;BME280;2377;51.734;8.950;2023-04-27T11:08:05;98224.13;;;13.20;38.61
27712;BME280;2377;51.734;8.950;2023-04-27T11:10:33;98230.97;;;13.26;38.50
27712;BME280;2377;51.734;8.950;2023-04-27T11:13:09;98219.00;;;13.20;36.65
27712;BME280;2377;51.734;8.950;2023-04-27T11:15:46;98221.28;;;13.28;39.11
27712;BME280;2377;51.734;8.950;2023-04-27T11:18:14;98215.84;;;13.37;35.96
27712;BME280;2377;51.734;8.950;2023-04-27T11:20:43;98221.44;;;13.34;39.01
27712;BME280;2377;51.734;8.950;2023-04-27T11:23:10;98211.44;;;13.25;36.33
27712;BME280;2377;51.734;8.950;2023-04-27T11:25:37;98211.50;;;13.19;38.41
27712;BME280;2377;51.734;8.950;2023-04-27T11:28:04;98204.25;;;13.16;38.46
27712;BME280;2377;51.734;8.950;2023-04-27T11:30:31;98204.25;;;13.16;38.16
27712;BME280;2377;51.734;8.950;2023-04-27T11:33:07;98205.31;;;13.26;38.56
27712;BME280;2377;51.734;8.950;2023-04-27T11:35:35;98205.47;;;13.31;38.56
27712;BME280;2377;51.734;8.950;2023-04-27T11:38:03;98195.03;;;13.26;36.85
27712;BME280;2377;51.734;8.950;2023-04-27T11:40:30;98196.47;;;13.22;38.12
27712;BME280;2377;51.734;8.950;2023-04-27T11:43:00;98195.25;;;12.95;35.89
27712;BME280;2377;51.734;8.950;2023-04-27T11:45:29;98197.94;;;12.69;37.17
27712;BME280;2377;51.734;8.950;2023-04-27T11:47:59;98196.88;;;12.77;36.74
27712;BME280;2377;51.734;8.950;2023-04-27T11:50:28;98200.59;;;12.93;37.07
27712;BME280;2377;51.734;8.950;2023-04-27T11:52:59;98195.50;;;13.05;37.33
27712;BME280;2377;51.734;8.950;2023-04-27T11:55:26;98194.78;;;13.16;37.88
27712;BME280;2377;51.734;8.950;2023-04-27T11:57:56;98192.00;;;13.18;35.39
27712;BME280;2377;51.734;8.950;2023-04-27T12:00:24;98190.75;;;13.08;36.05
27712;BME280;2377;51.734;8.950;2023-04-27T12:02:51;98191.19;;;13.05;36.76
27712;BME280;2377;51.734;8.950;2023-04-27T12:05:20;98190.53;;;13.10;35.11
27712;BME280;2377;51.734;8.950;2023-04-27T12:07:47;98189.28;;;13.01;36.23
27712;BME280;2377;51.734;8.950;2023-04-27T12:10:14;98193.06;;;12.98;37.03
27712;BME280;2377;51.734;8.950;2023-04-27T12:12:41;98192.38;;;12.91;35.65
27712;BME280;2377;51.734;8.950;2023-04-27T12:15:09;98191.44;;;12.85;36.67
27712;BME280;2377;51.734;8.950;2023-04-27T12:17:37;98191.03;;;13.00;36.68
27712;BME280;2377;51.734;8.950;2023-04-27T12:20:05;98192.69;;;12.95;37.06
27712;BME280;2377;51.734;8.950;2023-04-27T12:22:34;98182.69;;;13.05;35.97
27712;BME280;2377;51.734;8.950;2023-04-27T12:25:02;98183.38;;;13.12;36.19
27712;BME280;2377;51.734;8.950;2023-04-27T12:27:29;98186.09;;;13.17;37.09
27712;BME280;2377;51.734;8.950;2023-04-27T12:29:56;98190.13;;;13.25;37.14
27712;BME280;2377;51.734;8.950;2023-04-27T12:32:25;98181.91;;;13.35;37.47
27712;BME280;2377;51.734;8.950;2023-04-27T12:34:52;98175.44;;;13.44;37.87
27712;BME280;2377;51.734;8.950;2023-04-27T12:37:19;98182.94;;;13.45;37.58
27712;BME280;2377;51.734;8.950;2023-04-27T12:39:48;98176.22;;;13.44;37.54
27712;BME280;2377;51.734;8.950;2023-04-27T12:42:15;98181.72;;;13.48;37.24
27712;BME280;2377;51.734;8.950;2023-04-27T12:44:44;98183.13;;;13.32;36.77
27712;BME280;2377;51.734;8.950;2023-04-27T12:47:11;98169.19;;;13.40;37.43
27712;BME280;2377;51.734;8.950;2023-04-27T12:49:37;98181.47;;;13.61;38.79
27712;BME280;2377;51.734;8.950;2023-04-27T12:52:05;98173.56;;;13.74;38.83
27712;BME280;2377;51.734;8.950;2023-04-27T12:54:32;98181.63;;;13.90;37.33
27712;BME280;2377;51.734;8.950;2023-04-27T12:57:00;98181.72;;;13.95;38.21
27712;BME280;2377;51.734;8.950;2023-04-27T12:59:31;98179.94;;;14.07;37.72
27712;BME280;2377;51.734;8.950;2023-04-27T13:01:59;98187.84;;;14.17;38.05
27712;BME280;2377;51.734;8.950;2023-04-27T13:04:28;98176.63;;;14.35;36.57
27712;BME280;2377;51.734;8.950;2023-04-27T13:06:56;98178.44;;;14.35;37.18
27712;BME280;2377;51.734;8.950;2023-04-27T13:09:25;98177.75;;;14.40;36.74
27712;BME280;2377;51.734;8.950;2023-04-27T13:11:52;98178.06;;;14.43;38.42
27712;BME280;2377;51.734;8.950;2023-04-27T13:14:20;98179.28;;;14.52;37.61
27712;BME280;2377;51.734;8.950;2023-04-27T13:16:47;98171.47;;;14.59;37.29
27712;BME280;2377;51.734;8.950;2023-04-27T13:19:14;98175.47;;;14.67;37.66
27712;BME280;2377;51.734;8.950;2023-04-27T13:21:41;98174.50;;;14.56;37.54
27712;BME280;2377;51.734;8.950;2023-04-27T13:24:08;98168.66;;;14.61;37.93